Aeroporto :
LOGIN :

Iscrizione | Disclaimer

   EN    FR    IT 

 










Sommario :    VFR   VFR Marginale   IFR   IFR Intensivo   IFR Molto Intensivo
Visibilità : 
Base nubi : 
>= 8 km
>= 3000ft
5 / 8 km
1000 / 3000 ft
1500m / 5 km
500 / 1000 ft
800 / 1500m
200 / 500 ft
< 800m
< 200 ft
Simboli :   Temporali  Nebbia  Neve Forte  Precipitazioni Forti  Vento > 20 kt
SIGMETs :   Varie  Temporali  Ghiacco  Turbolenza  Onda orograficha  Ceneri Vulcaniche







- Altitudine del aeroporto : 26 ft
- Codice IATA : BIA
- Carte del aeroporto


LFKB - Bastia

ULTIMO METAR :
  • 151700Z AUTO VRB02KT CAVOK 19/16 Q1016 NOSIG

METARs OBSOLETI :
  • 151630Z AUTO 14005KT CAVOK 20/16 Q1016 NOSIG
  • 151600Z AUTO 14004KT 9999 FEW023 BKN160 BKN190 20/16 Q1015 NOSIG
  • 151530Z AUTO 12007KT 9999 SCT024 SCT160 BKN180 21/15 Q1015 NOSIG
  • 151500Z AUTO 12006KT 9999 FEW023 21/16 Q1015 NOSIG
  • 151430Z AUTO 12006KT CAVOK 21/16 Q1015 NOSIG

TAF TAF LFKB
Valido dal 15 a 15 ore il 16 a 15 ore UTC


151400Z 1515/1615 12010KT 9999 FEW025 BKN200 TX21/1612Z TN15/1603Z
BECMG 1518/1520 VRB05KT 9999 SCT020 BKN033
TEMPO 1523/1615 7000 RA BKN016 OVC030
PROB40
TEMPO 1602/1606 4000 TSRA BKN013 SCT025CB BKN025
ATIS : +33 4 95 59 19 40
Nessun NOTAM noto per questo aeroporto.
1 SIGMET conosciuto per la FIR Marseille (LFMM) :
 
Turbolenza severa
LFMM SIGMET 13 VALID 151400/151800 LFPW
LFMM MARSEILLE FIR/UIR SEV TURB FCST WI N4400 E00245 - N4600 E00300 - N4600 E00315 - N4345 E00415 - N4345 E00700 - N4245 E00700 - N4330 E00300 - N4400 E00245 SFC/FL070 STNR NC=



MetMap, La meteo Aeronautica in un colpo d'occhio ! - Copyright ORBIFLY Dicembre 2007 - Disclaimer

ORBIFLY MET'MAP TEAM :

Programmazione e sviluppo : Alexandra Zaïnal
Concezione e sviluppo : Baudouin d'Aumeries
Co-Programmazione e sviluppo : Marc-Olivier Méhu
Supporto tecnico e logistico : Manuel Goepfert
Aiuto per la traduzione : Arnaldo La Scala

Contatto : metmap@orbifly.com




FONTI E CREDITI :

   NOAA